Time;durP1;ratioP1;P1;durP2;ratioP2;P2;SDS_P1;SDS_P2;PMS_P1;PMS_P2;Temp;Humidity;BMP_temperature;BMP_pressure;BME280_temperature;BME280_humidity;BME280_pressure;Samples;Min_cycle;Max_cycle;Signal;HPM_P1;HPM_P2
2022/03/17 00:00:18;;;;;;;56.45;36.33;;;5.90;99.90;;;;;;5032461;28;20051;-71
2022/03/17 00:02:50;;;;;;;52.17;36.05;;;5.90;99.90;;;;;;5032003;28;20037;-71
2022/03/17 00:05:21;;;;;;;49.33;32.88;;;5.90;99.90;;;;;;5031088;28;20575;-71
2022/03/17 00:07:53;;;;;;;43.58;31.23;;;5.90;99.90;;;;;;5030727;28;20059;-71
2022/03/17 00:10:25;;;;;;;46.83;31.77;;;5.90;99.90;;;;;;5032216;28;20125;-71
2022/03/17 00:12:57;;;;;;;45.53;31.77;;;5.80;99.90;;;;;;5030620;28;20045;-72
2022/03/17 00:15:29;;;;;;;46.50;30.98;;;5.90;99.90;;;;;;5030971;28;20041;-71
2022/03/17 00:18:00;;;;;;;47.25;29.63;;;5.80;99.90;;;;;;5032025;28;20049;-71
2022/03/17 00:20:32;;;;;;;48.97;32.53;;;5.80;99.90;;;;;;5032149;28;20064;-71
2022/03/17 00:23:05;;;;;;;46.97;31.92;;;5.80;99.90;;;;;;5032023;28;20041;-71
2022/03/17 00:25:38;;;;;;;44.03;30.92;;;5.80;99.90;;;;;;5032061;28;20052;-71
2022/03/17 00:28:10;;;;;;;42.93;30.03;;;5.80;99.90;;;;;;5047374;28;20041;-71
2022/03/17 00:30:42;;;;;;;50.45;34.63;;;5.70;99.90;;;;;;5031926;28;20041;-71
2022/03/17 00:33:14;;;;;;;43.88;29.58;;;5.70;99.90;;;;;;5030500;28;20381;-71
2022/03/17 00:35:46;;;;;;;42.85;27.75;;;5.70;99.90;;;;;;5031859;28;20575;-71
2022/03/17 00:38:18;;;;;;;46.88;32.78;;;5.70;99.90;;;;;;5030743;28;20060;-70
2022/03/17 00:40:50;;;;;;;46.73;29.90;;;5.70;99.90;;;;;;5031851;28;20411;-71
2022/03/17 00:43:24;;;;;;;42.45;29.27;;;5.70;99.90;;;;;;5030293;28;20071;-71
2022/03/17 00:45:56;;;;;;;43.40;29.58;;;5.70;99.90;;;;;;5030325;28;20052;-71
2022/03/17 00:48:29;;;;;;;41.97;29.25;;;5.70;99.90;;;;;;5030544;28;20037;-71
2022/03/17 00:51:01;;;;;;;43.13;29.63;;;5.60;99.90;;;;;;5030451;28;20033;-71
2022/03/17 00:53:32;;;;;;;46.25;31.52;;;5.60;99.90;;;;;;5029284;28;20045;-71
2022/03/17 00:55:59;;;;;;;46.22;30.67;;;5.60;99.90;;;;;;5031574;28;20120;-71
2022/03/17 00:58:31;;;;;;;45.28;29.98;;;5.60;99.90;;;;;;5030497;28;20041;-71
2022/03/17 01:01:03;;;;;;;42.70;29.35;;;5.60;99.90;;;;;;5031498;28;20125;-71
2022/03/17 01:03:35;;;;;;;42.28;28.48;;;5.60;99.90;;;;;;5031188;28;20041;-71
2022/03/17 01:06:07;;;;;;;44.67;28.55;;;5.60;99.90;;;;;;5014274;28;20052;-71
2022/03/17 01:08:46;;;;;;;41.72;27.88;;;5.60;99.90;;;;;;5030173;28;20045;-71
2022/03/17 01:11:21;;;;;;;44.25;29.67;;;5.60;99.90;;;;;;5014673;28;20128;-71
2022/03/17 01:13:52;;;;;;;47.47;28.95;;;5.60;99.90;;;;;;5031240;28;20069;-71
2022/03/17 01:16:24;;;;;;;45.90;29.23;;;5.50;99.90;;;;;;5029979;28;20042;-71
2022/03/17 01:18:56;;;;;;;47.35;33.00;;;5.50;99.90;;;;;;5014545;28;20504;-71
2022/03/17 01:21:29;;;;;;;44.70;29.52;;;5.50;99.90;;;;;;5030123;28;20389;-71
2022/03/17 01:24:01;;;;;;;44.70;29.98;;;5.50;99.90;;;;;;5046308;28;20055;-71
2022/03/17 01:26:32;;;;;;;43.58;28.92;;;5.50;99.90;;;;;;5029854;28;20132;-71
2022/03/17 01:29:04;;;;;;;41.55;28.60;;;5.50;99.90;;;;;;5030050;28;20343;-71
2022/03/17 01:31:36;;;;;;;41.90;26.80;;;5.50;99.90;;;;;;5030139;28;20568;-71
2022/03/17 01:34:08;;;;;;;38.97;26.60;;;5.50;99.90;;;;;;5013932;28;20144;-71
2022/03/17 01:36:35;;;;;;;39.88;26.75;;;5.50;99.90;;;;;;5030054;28;20132;-71
2022/03/17 01:39:02;;;;;;;42.97;28.60;;;5.50;99.90;;;;;;5029852;28;20582;-71
2022/03/17 01:41:34;;;;;;;42.13;28.75;;;5.50;99.90;;;;;;5046475;28;20052;-71
2022/03/17 01:44:06;;;;;;;46.40;29.67;;;5.40;99.90;;;;;;5030990;28;20045;-71
2022/03/17 01:49:28;;;;;;;42.70;28.42;;;5.50;99.90;;;;;;5029886;28;20048;-71
2022/03/17 01:52:00;;;;;;;43.03;27.70;;;5.40;99.90;;;;;;5030028;28;20044;-71
2022/03/17 01:54:32;;;;;;;41.75;27.48;;;5.40;99.90;;;;;;5029532;28;20048;-71
2022/03/17 01:57:06;;;;;;;41.37;27.17;;;5.40;99.90;;;;;;5030995;28;20643;-70
2022/03/17 01:59:39;;;;;;;40.28;27.10;;;5.40;99.90;;;;;;5030723;28;20280;-71
2022/03/17 02:02:13;;;;;;;41.40;27.63;;;5.40;99.90;;;;;;5030429;28;20037;-71
2022/03/17 02:04:47;;;;;;;;;;;5.30;99.90;;;;;;5029822;28;20045;-71
2022/03/17 02:07:20;;;;;;;43.60;26.73;;;5.40;99.90;;;;;;5032543;28;19921;-71
2022/03/17 02:09:51;;;;;;;39.40;26.15;;;5.40;99.90;;;;;;5049188;28;20091;-71
2022/03/17 02:15:13;;;;;;;41.03;27.20;;;5.30;99.90;;;;;;5032652;28;20442;-71
2022/03/17 02:17:45;;;;;;;40.33;27.02;;;5.40;99.90;;;;;;5032359;28;20044;-71
2022/03/17 02:20:17;;;;;;;40.67;27.17;;;5.30;99.90;;;;;;5032474;28;20042;-71
2022/03/17 02:22:50;;;;;;;42.00;26.90;;;5.30;99.90;;;;;;5032324;28;20041;-71
2022/03/17 02:25:36;;;;;;;41.05;26.17;;;5.30;99.90;;;;;;5032389;28;20448;-71
2022/03/17 02:28:08;;;;;;;39.03;25.48;;;5.20;99.90;;;;;;5032266;28;20044;-71
2022/03/17 02:30:40;;;;;;;39.20;26.02;;;5.20;99.90;;;;;;5032397;28;20041;-70
2022/03/17 02:33:16;;;;;;;40.22;26.55;;;5.20;99.90;;;;;;5031947;28;20046;-71
2022/03/17 02:35:49;;;;;;;39.70;25.83;;;5.20;99.90;;;;;;5033475;28;20041;-71
2022/03/17 02:38:21;;;;;;;40.08;25.40;;;5.20;99.90;;;;;;5048894;28;20041;-71
2022/03/17 02:40:53;;;;;;;38.72;26.98;;;5.20;99.90;;;;;;5033383;28;20041;-71
2022/03/17 02:43:26;;;;;;;40.55;27.05;;;5.20;99.90;;;;;;5033191;28;20045;-71
2022/03/17 02:45:58;;;;;;;38.55;25.08;;;5.20;99.90;;;;;;5033393;28;20268;-71
2022/03/17 02:48:29;;;;;;;40.72;26.55;;;5.20;99.90;;;;;;5033287;28;20041;-71
2022/03/17 02:51:01;;;;;;;41.25;26.13;;;5.20;99.90;;;;;;5032009;28;20041;-71
2022/03/17 02:53:33;;;;;;;39.55;25.70;;;5.20;99.90;;;;;;5032866;28;20042;-71
2022/03/17 02:56:05;;;;;;;36.50;24.17;;;5.20;99.90;;;;;;5032966;28;20391;-71
2022/03/17 02:58:31;;;;;;;39.05;25.48;;;5.20;99.90;;;;;;5033361;28;20079;-71
2022/03/17 03:01:03;;;;;;;39.97;26.30;;;5.20;99.90;;;;;;5031961;28;20138;-71
2022/03/17 03:03:35;;;;;;;39.95;25.95;;;5.20;99.90;;;;;;5031502;28;20068;-71
2022/03/17 03:06:07;;;;;;;37.05;25.15;;;5.10;99.90;;;;;;5031536;28;20052;-71
2022/03/17 03:08:38;;;;;;;39.30;24.95;;;5.10;99.90;;;;;;5032886;28;20042;-71
2022/03/17 03:11:11;;;;;;;38.42;24.83;;;5.10;99.90;;;;;;5032829;28;20037;-71
2022/03/17 03:13:44;;;;;;;37.90;25.10;;;5.10;99.90;;;;;;5047137;28;20517;-71
2022/03/17 03:16:16;;;;;;;39.03;25.42;;;5.10;99.90;;;;;;5030934;28;20053;-71
2022/03/17 03:18:47;;;;;;;39.60;25.58;;;5.10;99.90;;;;;;5031290;28;20037;-71
2022/03/17 03:21:14;;;;;;;42.63;27.25;;;5.10;99.90;;;;;;5014943;28;20077;-71
2022/03/17 03:23:46;;;;;;;43.55;27.38;;;5.10;99.90;;;;;;5031121;28;20150;-71
2022/03/17 03:26:17;;;;;;;37.70;25.73;;;5.10;99.90;;;;;;5032384;28;20041;-71
2022/03/17 03:28:49;;;;;;;38.33;26.02;;;5.10;99.90;;;;;;5031196;28;20045;-71
2022/03/17 03:31:22;;;;;;;37.30;25.98;;;5.00;99.90;;;;;;5032537;28;20043;-71
2022/03/17 03:33:53;;;;;;;40.50;26.20;;;5.00;99.90;;;;;;5015147;28;20041;-71
2022/03/17 03:39:16;;;;;;;39.55;25.60;;;5.00;99.90;;;;;;5032325;28;20134;-71
2022/03/17 03:41:48;;;;;;;42.17;27.00;;;5.00;99.90;;;;;;5032342;28;20049;-71
2022/03/17 03:44:19;;;;;;;38.35;25.95;;;5.00;99.90;;;;;;5030743;28;20514;-71
2022/03/17 03:46:46;;;;;;;37.78;25.45;;;5.00;99.90;;;;;;5030704;28;20045;-71
2022/03/17 03:49:18;;;;;;;39.30;25.98;;;5.00;99.90;;;;;;5032032;28;20046;-71
2022/03/17 03:51:45;;;;;;;38.38;24.52;;;4.90;99.90;;;;;;5030838;28;20140;-71
2022/03/17 03:54:17;;;;;;;43.70;26.52;;;4.80;99.90;;;;;;5014694;28;20492;-71
2022/03/17 03:56:53;;;;;;;41.05;27.33;;;4.70;99.90;;;;;;5030533;28;20140;-71
2022/03/17 03:59:28;;;;;;;38.35;25.88;;;4.70;99.90;;;;;;5030743;28;20056;-71
2022/03/17 04:02:04;;;;;;;39.17;26.20;;;4.70;99.90;;;;;;5031837;28;20053;-71
2022/03/17 04:04:39;;;;;;;37.63;24.85;;;4.70;99.90;;;;;;5031924;28;20042;-71
2022/03/17 04:07:12;;;;;;;37.92;26.13;;;4.60;99.90;;;;;;5031853;28;20045;-71
2022/03/17 04:09:44;;;;;;;42.72;26.58;;;4.60;99.90;;;;;;5031688;28;20046;-71
2022/03/17 04:12:16;;;;;;;40.50;26.65;;;4.60;99.90;;;;;;5046866;28;20055;-71
2022/03/17 04:14:47;;;;;;;36.78;24.65;;;4.60;99.90;;;;;;5030431;28;20514;-71
2022/03/17 04:17:19;;;;;;;38.47;24.98;;;4.60;99.90;;;;;;5031567;28;20045;-71
2022/03/17 04:19:51;;;;;;;38.75;26.80;;;4.60;99.90;;;;;;5031628;28;20055;-71
2022/03/17 04:22:23;;;;;;;38.95;24.58;;;4.60;99.90;;;;;;5030594;28;20049;-71
2022/03/17 04:24:55;;;;;;;38.60;26.02;;;4.50;99.90;;;;;;5031978;28;20041;-71
2022/03/17 04:27:27;;;;;;;36.13;24.65;;;4.40;99.90;;;;;;5030678;28;20048;-71
2022/03/17 04:29:58;;;;;;;40.08;26.05;;;4.40;99.90;;;;;;5032058;28;20095;-71
2022/03/17 04:32:30;;;;;;;40.55;24.92;;;4.40;99.90;;;;;;5030533;28;20428;-71
2022/03/17 04:35:02;;;;;;;36.65;24.52;;;4.40;99.90;;;;;;5031840;28;20526;-71
2022/03/17 04:37:34;;;;;;;37.83;25.92;;;4.40;99.90;;;;;;5031835;28;20045;-71
2022/03/17 04:40:07;;;;;;;42.22;27.13;;;4.50;99.90;;;;;;5047367;28;20048;-71
2022/03/17 04:42:38;;;;;;;37.60;24.98;;;4.50;99.90;;;;;;5031688;28;20120;-70
2022/03/17 04:45:10;;;;;;;37.38;25.00;;;4.50;99.90;;;;;;5031811;28;20049;-71
2022/03/17 04:47:42;;;;;;;39.67;25.50;;;4.50;99.90;;;;;;5030345;28;20411;-71
2022/03/17 04:50:14;;;;;;;39.78;25.30;;;4.50;99.90;;;;;;5031705;28;20033;-71
2022/03/17 04:55:36;;;;;;;40.40;25.15;;;4.50;99.90;;;;;;5031674;28;20041;-71
2022/03/17 04:58:07;;;;;;;41.05;26.13;;;4.50;99.90;;;;;;5030314;28;20042;-71
2022/03/17 05:00:40;;;;;;;42.70;25.55;;;4.40;99.90;;;;;;5030500;28;20047;-71
2022/03/17 05:03:12;;;;;;;39.63;25.02;;;4.40;99.90;;;;;;5030016;28;20046;-72
2022/03/17 05:05:44;;;;;;;40.78;26.50;;;4.40;99.90;;;;;;5030389;28;20045;-70
2022/03/17 05:08:15;;;;;;;40.20;26.13;;;4.40;99.90;;;;;;5030680;28;20041;-71
2022/03/17 05:10:48;;;;;;;39.40;25.88;;;4.40;99.90;;;;;;5034736;28;20026;-71
2022/03/17 05:13:22;;;;;;;38.30;24.93;;;4.40;99.90;;;;;;5021723;28;20056;-70
2022/03/17 05:15:54;;;;;;;42.97;26.77;;;4.40;99.90;;;;;;5029457;28;20296;-71
2022/03/17 05:18:26;;;;;;;38.00;25.15;;;4.40;99.90;;;;;;5013417;28;20052;-71
2022/03/17 05:20:58;;;;;;;39.22;24.73;;;4.40;99.90;;;;;;5010303;28;20104;-71
2022/03/17 05:23:31;;;;;;;40.90;25.52;;;4.40;99.90;;;;;;5009404;28;20048;-71
2022/03/17 05:25:57;;;;;;;37.85;25.55;;;4.40;99.90;;;;;;5009477;28;20053;-71
2022/03/17 05:28:24;;;;;;;45.85;25.13;;;4.40;99.90;;;;;;5002928;28;20496;-71
2022/03/17 05:30:51;;;;;;;40.63;25.55;;;4.40;99.90;;;;;;5009418;28;20103;-71
2022/03/17 05:33:23;;;;;;;40.20;26.02;;;4.40;99.90;;;;;;5010761;28;20112;-72
2022/03/17 05:35:55;;;;;;;44.97;26.45;;;4.40;99.90;;;;;;5013920;28;20060;-73
2022/03/17 05:38:27;;;;;;;41.17;24.83;;;4.40;99.90;;;;;;5019300;28;20057;-73
2022/03/17 05:41:00;;;;;;;45.15;26.83;;;4.40;99.90;;;;;;5009355;28;20049;-71
2022/03/17 05:43:31;;;;;;;45.92;29.65;;;4.40;99.90;;;;;;5007696;28;20052;-71
2022/03/17 05:46:03;;;;;;;44.58;28.42;;;4.40;99.90;;;;;;5008028;28;20790;-71
2022/03/17 05:48:35;;;;;;;42.55;27.20;;;4.40;99.90;;;;;;5010000;28;20485;-71
2022/03/17 05:51:06;;;;;;;52.15;32.40;;;4.50;99.90;;;;;;5002893;28;20042;-71
2022/03/17 05:53:38;;;;;;;56.90;34.40;;;4.50;99.90;;;;;;4998196;28;20034;-72
2022/03/17 05:56:10;;;;;;;55.55;31.92;;;4.50;99.90;;;;;;4994840;28;20122;-71
2022/03/17 05:58:42;;;;;;;50.67;31.65;;;4.60;99.90;;;;;;5005254;28;20145;-72
2022/03/17 06:01:13;;;;;;;49.63;31.98;;;4.60;99.90;;;;;;5004468;28;20534;-71
2022/03/17 06:03:45;;;;;;;52.13;31.50;;;4.60;99.90;;;;;;4992274;28;20038;-71
2022/03/17 06:06:17;;;;;;;55.88;34.88;;;4.60;99.90;;;;;;4997432;28;20569;-71
2022/03/17 06:08:49;;;;;;;56.40;33.67;;;4.70;99.90;;;;;;5012394;28;20046;-71
2022/03/17 06:11:21;;;;;;;53.95;29.52;;;4.70;99.90;;;;;;5013591;28;20227;-71
2022/03/17 06:13:53;;;;;;;46.07;29.23;;;4.70;99.90;;;;;;5011867;28;20044;-71
2022/03/17 06:16:25;;;;;;;43.50;29.40;;;4.70;99.90;;;;;;5009934;28;20033;-72
2022/03/17 06:18:56;;;;;;;44.00;28.65;;;4.70;99.90;;;;;;5024557;28;20050;-72
2022/03/17 06:21:28;;;;;;;41.58;28.45;;;4.70;99.90;;;;;;5020544;28;20044;-72
2022/03/17 06:24:00;;;;;;;43.00;28.08;;;4.70;99.90;;;;;;5011754;28;20049;-72
2022/03/17 06:26:27;;;;;;;46.63;28.73;;;4.70;99.90;;;;;;5010032;28;20044;-71
2022/03/17 06:28:58;;;;;;;46.53;28.00;;;4.80;99.90;;;;;;5013566;28;20522;-71
2022/03/17 06:31:30;;;;;;;46.08;28.30;;;4.80;99.90;;;;;;5012804;28;20109;-71
2022/03/17 06:34:02;;;;;;;40.20;28.45;;;4.80;99.90;;;;;;5011772;28;20048;-72
2022/03/17 06:36:34;;;;;;;44.67;27.42;;;4.80;99.90;;;;;;5013177;28;20202;-72
2022/03/17 06:39:06;;;;;;;43.17;28.30;;;4.80;99.90;;;;;;5001092;28;20507;-73
2022/03/17 06:41:33;;;;;;;45.78;29.92;;;4.80;99.90;;;;;;5013399;28;20060;-74
2022/03/17 06:44:05;;;;;;;41.42;27.90;;;4.80;99.90;;;;;;5000084;28;20412;-74
2022/03/17 06:46:36;;;;;;;41.80;27.88;;;4.80;99.90;;;;;;5001574;28;20081;-72
2022/03/17 06:49:08;;;;;;;47.20;30.48;;;4.80;99.90;;;;;;5012910;28;20034;-72
2022/03/17 06:51:40;;;;;;;43.05;27.65;;;4.90;99.90;;;;;;5010944;28;20044;-72
2022/03/17 06:54:11;;;;;;;42.97;28.77;;;4.90;99.90;;;;;;5004847;28;20492;-72
2022/03/17 06:56:43;;;;;;;41.55;29.58;;;4.90;99.90;;;;;;5011619;28;20045;-71
2022/03/17 06:59:10;;;;;;;45.30;30.98;;;5.00;99.90;;;;;;5004328;28;20142;-71
2022/03/17 07:01:42;;;;;;;46.50;28.88;;;5.00;99.90;;;;;;5011150;28;20042;-72
2022/03/17 07:04:13;;;;;;;46.85;31.15;;;5.10;99.90;;;;;;5011967;28;20048;-71
2022/03/17 07:06:45;;;;;;;46.83;29.77;;;5.10;99.90;;;;;;5012361;28;20496;-72
2022/03/17 07:09:13;;;;;;;49.20;30.08;;;5.10;99.90;;;;;;5008202;28;20046;-71
2022/03/17 07:11:46;;;;;;;43.13;29.23;;;5.10;99.90;;;;;;5010951;28;20038;-71
2022/03/17 07:14:18;;;;;;;42.75;29.55;;;5.10;99.90;;;;;;5004310;28;20065;-71
2022/03/17 07:16:50;;;;;;;42.78;28.98;;;5.20;99.90;;;;;;5012103;28;20042;-71
2022/03/17 07:19:23;;;;;;;46.05;31.60;;;5.20;99.90;;;;;;5004205;28;20061;-71
2022/03/17 07:21:52;;;;;;;43.25;28.73;;;5.20;99.90;;;;;;4992473;28;20617;-72
2022/03/17 07:24:18;;;;;;;39.85;27.50;;;5.20;99.90;;;;;;5003194;28;20475;-72
2022/03/17 07:26:45;;;;;;;44.88;28.50;;;5.20;99.90;;;;;;5012092;28;20121;-72
2022/03/17 07:29:17;;;;;;;44.83;29.35;;;5.20;99.90;;;;;;5011274;28;20046;-72
2022/03/17 07:31:49;;;;;;;49.40;32.50;;;5.30;99.90;;;;;;5012142;28;20492;-72
2022/03/17 07:34:24;;;;;;;65.85;40.30;;;5.40;99.90;;;;;;5011837;28;20516;-72
2022/03/17 07:36:56;;;;;;;56.22;36.30;;;5.40;99.90;;;;;;4991954;28;20049;-72
2022/03/17 07:39:28;;;;;;;42.22;28.55;;;5.50;99.90;;;;;;5004645;28;20046;-72
2022/03/17 07:41:59;;;;;;;42.17;28.10;;;5.50;99.90;;;;;;5011494;28;20140;-72
2022/03/17 07:44:51;;;;;;;45.72;30.83;;;5.60;99.90;;;;;;5024460;28;20058;-72
2022/03/17 07:47:46;;;;;;;47.15;30.00;;;5.60;99.90;;;;;;5011159;28;20443;-72
2022/03/17 07:50:19;;;;;;;38.72;27.27;;;5.70;99.90;;;;;;5010006;28;20044;-72
2022/03/17 07:52:51;;;;;;;44.33;27.40;;;5.70;99.90;;;;;;5023194;28;20133;-72
2022/03/17 07:55:23;;;;;;;39.47;26.52;;;5.70;99.90;;;;;;5010245;28;20045;-72
2022/03/17 07:57:55;;;;;;;42.97;28.13;;;5.70;99.90;;;;;;5007702;28;20046;-72
2022/03/17 08:00:27;;;;;;;44.42;28.42;;;5.80;99.90;;;;;;5012720;28;20037;-72
2022/03/17 08:03:00;;;;;;;40.08;27.73;;;5.80;99.90;;;;;;5014876;28;20100;-72
2022/03/17 08:05:32;;;;;;;38.60;27.73;;;5.90;99.90;;;;;;5010874;28;20060;-72
2022/03/17 08:08:04;;;;;;;40.35;27.50;;;5.90;99.90;;;;;;5009657;28;20293;-72
2022/03/17 08:10:36;;;;;;;43.83;29.10;;;6.00;99.90;;;;;;4990868;28;20129;-72
2022/03/17 08:13:10;;;;;;;41.33;28.02;;;6.00;99.90;;;;;;4996055;28;20125;-72
2022/03/17 08:15:43;;;;;;;43.28;28.77;;;6.00;99.90;;;;;;5011546;28;20038;-72
2022/03/17 08:18:15;;;;;;;41.95;28.17;;;6.00;99.90;;;;;;5010116;28;20074;-72
2022/03/17 08:20:46;;;;;;;40.35;28.15;;;6.00;99.90;;;;;;5001311;28;20046;-72
2022/03/17 08:23:21;;;;;;;45.28;27.73;;;5.90;99.90;;;;;;5010153;28;20460;-73
2022/03/17 08:25:53;;;;;;;42.00;28.67;;;5.90;99.90;;;;;;4991069;28;20133;-72
2022/03/17 08:28:25;;;;;;;44.35;27.52;;;6.00;99.90;;;;;;5011075;28;20033;-72
2022/03/17 08:30:57;;;;;;;40.00;27.20;;;6.00;99.90;;;;;;5009044;28;20042;-72
2022/03/17 08:33:29;;;;;;;39.95;27.33;;;6.00;99.90;;;;;;4974798;28;20042;-72
2022/03/17 08:36:01;;;;;;;41.83;27.55;;;6.00;99.90;;;;;;5002565;28;20042;-72
2022/03/17 08:38:34;;;;;;;46.35;27.27;;;6.00;99.90;;;;;;5002486;28;20052;-72
2022/03/17 08:41:06;;;;;;;45.65;28.00;;;6.10;99.90;;;;;;5011413;28;20049;-72
2022/03/17 08:43:37;;;;;;;40.25;27.77;;;6.10;99.90;;;;;;5003175;28;20407;-72
2022/03/17 08:51:53;;;;;;;44.45;28.75;;;6.20;99.90;;;;;;5011293;28;20049;-72
2022/03/17 08:54:26;;;;;;;43.60;28.48;;;6.20;99.90;;;;;;5010561;28;20045;-72
2022/03/17 08:56:59;;;;;;;38.75;27.60;;;6.20;99.90;;;;;;4994156;28;20497;-72
2022/03/17 08:59:34;;;;;;;47.55;28.27;;;6.10;99.90;;;;;;5010954;28;20407;-72
2022/03/17 09:02:08;;;;;;;46.65;29.25;;;6.20;99.90;;;;;;4990903;28;20045;-72
2022/03/17 09:04:39;;;;;;;45.58;28.05;;;6.20;99.90;;;;;;5007864;28;20125;-72
2022/03/17 09:07:11;;;;;;;43.42;28.35;;;6.20;99.90;;;;;;5009678;28;20486;-72
2022/03/17 09:09:45;;;;;;;43.92;28.42;;;6.30;99.90;;;;;;5009673;28;20515;-73
2022/03/17 09:12:18;;;;;;;39.15;28.33;;;6.30;99.90;;;;;;5009889;28;20132;-72
2022/03/17 09:14:50;;;;;;;57.05;35.10;;;6.40;99.90;;;;;;4994713;28;20038;-72
2022/03/17 09:17:21;;;;;;;43.55;28.48;;;6.40;99.90;;;;;;5013730;28;20133;-72
2022/03/17 09:19:53;;;;;;;46.50;28.23;;;6.40;99.90;;;;;;5013549;28;20050;-72
2022/03/17 09:22:25;;;;;;;83.60;42.28;;;6.50;99.90;;;;;;5014672;28;20120;-73
2022/03/17 09:24:57;;;;;;;55.60;34.30;;;6.50;99.90;;;;;;5014978;28;20048;-72
2022/03/17 09:27:29;;;;;;;50.65;32.03;;;6.60;99.90;;;;;;5013368;28;20069;-72
2022/03/17 09:30:01;;;;;;;45.75;29.73;;;6.70;99.90;;;;;;5019655;28;20133;-72
2022/03/17 09:32:33;;;;;;;47.85;30.70;;;6.70;99.90;;;;;;5008190;28;20416;-72
2022/03/17 09:35:07;;;;;;;45.63;30.55;;;6.80;99.90;;;;;;4995598;28;20049;-72
2022/03/17 09:37:39;;;;;;;44.75;28.75;;;6.80;99.90;;;;;;4993795;28;20408;-72
2022/03/17 09:40:12;;;;;;;57.70;37.42;;;6.80;99.90;;;;;;4993794;28;20046;-72
2022/03/17 09:42:44;;;;;;;47.22;30.77;;;6.80;99.90;;;;;;4994353;28;20121;-72
2022/03/17 09:45:15;;;;;;;47.97;30.73;;;6.90;99.90;;;;;;5005468;28;20042;-72
2022/03/17 09:47:48;;;;;;;43.10;30.10;;;6.90;99.90;;;;;;5014471;28;20066;-72
2022/03/17 09:50:19;;;;;;;40.72;28.25;;;6.90;99.90;;;;;;5009381;28;20042;-72
2022/03/17 09:52:51;;;;;;;47.97;30.73;;;6.80;99.90;;;;;;4993733;28;20048;-72
2022/03/17 09:55:23;;;;;;;50.13;32.60;;;6.90;99.90;;;;;;4993682;28;20412;-72
2022/03/17 09:57:55;;;;;;;43.53;29.60;;;6.90;99.90;;;;;;4994395;28;20050;-72
2022/03/17 10:00:47;;;;;;;44.05;29.20;;;6.90;99.90;;;;;;5005705;28;20096;-72
2022/03/17 10:03:22;;;;;;;47.38;30.23;;;6.80;99.90;;;;;;5012527;28;20050;-71
2022/03/17 10:05:57;;;;;;;42.08;28.20;;;6.90;99.90;;;;;;4996816;28;20486;-72
2022/03/17 10:08:29;;;;;;;41.50;28.70;;;6.90;99.90;;;;;;5012754;28;20052;-72
2022/03/17 10:11:00;;;;;;;45.42;30.33;;;6.90;99.90;;;;;;5013770;28;20040;-72
2022/03/17 10:13:28;;;;;;;41.13;28.95;;;6.90;99.90;;;;;;5013661;28;20065;-72
2022/03/17 10:16:18;;;;;;;44.08;29.52;;;6.90;99.90;;;;;;5009655;28;20050;-73
2022/03/17 10:19:08;;;;;;;42.45;28.00;;;6.80;99.90;;;;;;5010476;28;20046;-72
2022/03/17 10:21:41;;;;;;;43.90;31.05;;;6.80;99.90;;;;;;5006219;28;20077;-71
2022/03/17 10:24:09;;;;;;;44.38;31.10;;;6.90;99.90;;;;;;5012000;28;20128;-72
2022/03/17 10:26:47;;;;;;;50.60;30.20;;;6.90;99.90;;;;;;5012089;28;20064;-72
2022/03/17 10:29:26;;;;;;;46.10;29.98;;;7.00;99.90;;;;;;5011222;28;20042;-72
2022/03/17 10:32:06;;;;;;;42.83;28.77;;;7.00;99.90;;;;;;4996446;28;20046;-72
2022/03/17 10:34:36;;;;;;;45.58;31.33;;;7.00;99.90;;;;;;5011885;28;20144;-72
2022/03/17 10:37:10;;;;;;;42.20;29.17;;;7.10;99.90;;;;;;4992797;28;20065;-73
2022/03/17 10:39:45;;;;;;;41.40;30.27;;;7.10;99.90;;;;;;4993848;28;20511;-72
2022/03/17 10:42:21;;;;;;;46.75;29.80;;;7.10;99.90;;;;;;5008330;28;20133;-72
2022/03/17 10:44:56;;;;;;;41.85;29.90;;;7.10;99.90;;;;;;5008100;28;20105;-72
2022/03/17 10:47:33;;;;;;;42.33;29.20;;;7.20;99.90;;;;;;5008016;28;20046;-72
2022/03/17 10:50:09;;;;;;;52.38;38.83;;;7.20;99.90;;;;;;4989275;28;20044;-72
2022/03/17 10:52:47;;;;;;;49.47;34.45;;;7.20;99.90;;;;;;5017094;28;20041;-72
2022/03/17 10:55:22;;;;;;;41.95;28.35;;;7.20;99.90;;;;;;5032778;28;20056;-72
2022/03/17 10:58:00;;;;;;;42.13;28.17;;;7.20;99.90;;;;;;5033161;28;20551;-72
2022/03/17 11:00:34;;;;;;;46.92;29.45;;;7.20;99.90;;;;;;5014090;28;20092;-72
2022/03/17 11:03:06;;;;;;;43.92;28.42;;;7.20;99.90;;;;;;5006494;28;20121;-72
2022/03/17 11:05:37;;;;;;;42.03;28.73;;;7.30;99.90;;;;;;4995064;28;20056;-72
2022/03/17 11:08:10;;;;;;;45.85;27.48;;;7.30;99.90;;;;;;4992465;28;20053;-72
2022/03/17 11:10:42;;;;;;;44.20;27.67;;;7.20;99.90;;;;;;4992936;28;20097;-72
2022/03/17 11:13:14;;;;;;;41.00;27.42;;;7.30;99.90;;;;;;5002838;28;20038;-73
2022/03/17 11:15:45;;;;;;;40.70;28.58;;;7.20;99.90;;;;;;5013228;28;20132;-72
2022/03/17 11:18:21;;;;;;;41.08;28.15;;;7.20;99.90;;;;;;4995183;28;20141;-72
2022/03/17 11:21:17;;;;;;;41.05;26.80;;;7.30;99.90;;;;;;5022169;28;20056;-72
2022/03/17 11:23:56;;;;;;;38.78;26.85;;;7.30;99.90;;;;;;5009544;28;20060;-72
2022/03/17 11:26:37;;;;;;;40.33;27.42;;;7.30;99.90;;;;;;4991889;28;20044;-72
2022/03/17 11:29:14;;;;;;;39.22;27.15;;;7.30;99.90;;;;;;5012089;28;20048;-73
2022/03/17 11:31:55;;;;;;;41.80;27.25;;;7.30;99.90;;;;;;4999012;28;20046;-72
2022/03/17 11:34:48;;;;;;;41.88;27.65;;;7.30;99.90;;;;;;5010683;28;20136;-72
2022/03/17 11:37:20;;;;;;;40.53;27.70;;;7.40;99.90;;;;;;5010365;28;20134;-72
2022/03/17 11:39:53;;;;;;;42.03;28.40;;;7.30;99.90;;;;;;4995704;28;20092;-72
2022/03/17 11:42:42;;;;;;;40.45;27.65;;;7.40;99.90;;;;;;5011188;28;20084;-72
2022/03/17 11:45:13;;;;;;;43.00;28.77;;;7.40;99.90;;;;;;5004247;28;20038;-72
2022/03/17 11:47:53;;;;;;;37.50;27.00;;;7.50;99.90;;;;;;5011187;28;20512;-72
2022/03/17 11:50:40;;;;;;;39.15;28.27;;;7.50;99.90;;;;;;5012452;28;20048;-72
2022/03/17 11:53:12;;;;;;;35.72;26.52;;;7.50;99.90;;;;;;5008186;28;20466;-72
2022/03/17 11:55:46;;;;;;;38.92;28.10;;;7.50;99.90;;;;;;5010358;28;20045;-72
2022/03/17 11:58:26;;;;;;;39.75;25.73;;;7.50;99.90;;;;;;5008949;28;20045;-72
2022/03/17 12:01:25;;;;;;;40.95;26.15;;;7.50;99.90;;;;;;5004963;28;20042;-71
2022/03/17 12:03:58;;;;;;;39.22;27.35;;;7.50;99.90;;;;;;5004810;28;20042;-72
2022/03/17 12:06:35;;;;;;;38.65;25.95;;;7.50;99.90;;;;;;5003205;28;20124;-72
2022/03/17 12:09:11;;;;;;;38.17;26.33;;;7.60;99.90;;;;;;5010088;28;20044;-72
2022/03/17 12:11:47;;;;;;;42.92;27.38;;;7.60;99.90;;;;;;4989728;28;20138;-72
2022/03/17 12:14:23;;;;;;;40.92;27.05;;;7.60;99.90;;;;;;4990974;28;20134;-72
2022/03/17 12:16:57;;;;;;;38.72;27.02;;;7.60;99.90;;;;;;4995413;28;20034;-72
2022/03/17 12:19:43;;;;;;;42.47;29.05;;;7.70;99.90;;;;;;5000681;28;20045;-72
2022/03/17 12:22:39;;;;;;;38.22;27.60;;;7.80;99.90;;;;;;5006976;28;20046;-72
2022/03/17 12:25:21;;;;;;;44.55;27.83;;;7.80;99.90;;;;;;5004367;28;20491;-72
2022/03/17 12:28:00;;;;;;;43.95;30.35;;;7.80;99.90;;;;;;5010346;28;20392;-71
2022/03/17 12:30:33;;;;;;;39.25;26.45;;;7.80;99.90;;;;;;5027005;28;20554;-72
2022/03/17 12:33:06;;;;;;;43.05;28.63;;;7.90;99.90;;;;;;5010764;28;20034;-72
2022/03/17 12:35:39;;;;;;;37.63;26.77;;;7.90;99.90;;;;;;5025785;28;20457;-72
2022/03/17 12:38:11;;;;;;;38.10;27.85;;;7.90;99.90;;;;;;5005263;28;21160;-72
2022/03/17 12:40:46;;;;;;;36.72;27.45;;;8.00;99.90;;;;;;4993229;28;20474;-72
2022/03/17 12:43:21;;;;;;;43.55;27.20;;;8.00;99.90;;;;;;4998071;28;20408;-72
2022/03/17 12:45:53;;;;;;;40.80;27.92;;;8.10;99.90;;;;;;4999192;28;20125;-72
2022/03/17 12:48:25;;;;;;;39.17;27.45;;;8.10;99.90;;;;;;5005991;28;20133;-72
2022/03/17 12:51:05;;;;;;;40.28;28.80;;;8.10;99.90;;;;;;5000253;28;20041;-72
2022/03/17 12:53:39;;;;;;;43.53;27.80;;;8.10;99.90;;;;;;5003829;28;20048;-72
2022/03/17 12:56:11;;;;;;;39.10;27.90;;;8.20;99.90;;;;;;5007528;28;20038;-72
2022/03/17 12:58:45;;;;;;;42.22;28.48;;;8.20;99.90;;;;;;4992697;28;20052;-72
2022/03/17 13:01:17;;;;;;;39.17;29.08;;;8.10;99.90;;;;;;5009038;28;20056;-72
2022/03/17 13:03:49;;;;;;;39.78;27.27;;;8.20;99.90;;;;;;4993114;28;20421;-72
2022/03/17 13:09:11;;;;;;;46.10;30.65;;;8.20;99.90;;;;;;5010001;28;20048;-72
2022/03/17 13:14:37;;;;;;;46.97;29.63;;;8.20;99.90;;;;;;5009634;28;20524;-72
2022/03/17 13:17:09;;;;;;;44.97;30.42;;;8.20;99.90;;;;;;5009246;28;20136;-72
2022/03/17 13:19:46;;;;;;;37.85;26.63;;;8.20;99.90;;;;;;5009380;28;20053;-72
2022/03/17 13:22:27;;;;;;;46.05;29.58;;;8.20;99.90;;;;;;5010391;28;20042;-72
2022/03/17 13:25:01;;;;;;;42.10;28.55;;;8.20;99.90;;;;;;5010496;28;20073;-72
2022/03/17 13:27:43;;;;;;;44.00;28.65;;;8.30;99.90;;;;;;5008692;28;20430;-72
2022/03/17 13:30:17;;;;;;;42.05;28.60;;;8.20;99.90;;;;;;5009601;28;20073;-72